sensor_id;sensor_type;location;lat;lon;timestamp;P1;durP1;ratioP1;P2;durP2;ratioP2
46180;SDS011;58963;50.438;30.594;2022-08-01T00:03:18;5.35;;;2.72;;
46180;SDS011;58963;50.438;30.594;2022-08-01T00:08:38;4.30;;;2.63;;
46180;SDS011;58963;50.438;30.594;2022-08-01T00:13:57;3.85;;;2.50;;
46180;SDS011;58963;50.438;30.594;2022-08-01T00:19:16;5.18;;;2.55;;
46180;SDS011;58963;50.438;30.594;2022-08-01T00:24:35;4.35;;;2.65;;
46180;SDS011;58963;50.438;30.594;2022-08-01T00:29:54;5.28;;;2.67;;
46180;SDS011;58963;50.438;30.594;2022-08-01T00:35:14;5.20;;;2.60;;
46180;SDS011;58963;50.438;30.594;2022-08-01T00:40:33;3.22;;;2.58;;
46180;SDS011;58963;50.438;30.594;2022-08-01T00:45:52;4.45;;;2.72;;
46180;SDS011;58963;50.438;30.594;2022-08-01T00:51:12;4.45;;;2.75;;
46180;SDS011;58963;50.438;30.594;2022-08-01T00:56:32;4.50;;;3.30;;
46180;SDS011;58963;50.438;30.594;2022-08-01T01:01:51;5.32;;;3.35;;
46180;SDS011;58963;50.438;30.594;2022-08-01T01:12:39;4.85;;;2.92;;
46180;SDS011;58963;50.438;30.594;2022-08-01T01:18:25;5.47;;;3.20;;
46180;SDS011;58963;50.438;30.594;2022-08-01T01:29:42;5.25;;;3.33;;
46180;SDS011;58963;50.438;30.594;2022-08-01T01:35:06;4.70;;;3.13;;
46180;SDS011;58963;50.438;30.594;2022-08-01T01:40:29;4.20;;;3.10;;
46180;SDS011;58963;50.438;30.594;2022-08-01T01:45:50;6.60;;;3.40;;
46180;SDS011;58963;50.438;30.594;2022-08-01T01:51:10;4.95;;;3.13;;
46180;SDS011;58963;50.438;30.594;2022-08-01T01:56:31;6.18;;;3.70;;
46180;SDS011;58963;50.438;30.594;2022-08-01T02:01:52;6.35;;;3.40;;
46180;SDS011;58963;50.438;30.594;2022-08-01T02:07:16;6.80;;;3.20;;
46180;SDS011;58963;50.438;30.594;2022-08-01T02:12:40;5.82;;;3.70;;
46180;SDS011;58963;50.438;30.594;2022-08-01T02:18:02;5.85;;;3.30;;
46180;SDS011;58963;50.438;30.594;2022-08-01T02:23:22;6.63;;;3.45;;
46180;SDS011;58963;50.438;30.594;2022-08-01T02:28:47;6.85;;;3.55;;
46180;SDS011;58963;50.438;30.594;2022-08-01T02:34:17;4.88;;;3.15;;
46180;SDS011;58963;50.438;30.594;2022-08-01T02:39:37;8.60;;;3.63;;
46180;SDS011;58963;50.438;30.594;2022-08-01T02:44:58;7.57;;;3.55;;
46180;SDS011;58963;50.438;30.594;2022-08-01T02:50:18;6.65;;;3.28;;
46180;SDS011;58963;50.438;30.594;2022-08-01T02:55:39;5.05;;;3.38;;
46180;SDS011;58963;50.438;30.594;2022-08-01T03:01:00;5.10;;;3.58;;
46180;SDS011;58963;50.438;30.594;2022-08-01T03:06:21;5.22;;;3.22;;
46180;SDS011;58963;50.438;30.594;2022-08-01T03:11:43;15.25;;;3.67;;
46180;SDS011;58963;50.438;30.594;2022-08-01T03:17:04;3.75;;;2.72;;
46180;SDS011;58963;50.438;30.594;2022-08-01T03:22:25;5.22;;;2.95;;
46180;SDS011;58963;50.438;30.594;2022-08-01T03:27:47;6.93;;;2.70;;
46180;SDS011;58963;50.438;30.594;2022-08-01T03:33:13;5.00;;;2.78;;
46180;SDS011;58963;50.438;30.594;2022-08-01T03:38:32;4.65;;;2.92;;
46180;SDS011;58963;50.438;30.594;2022-08-01T03:44:07;5.82;;;2.60;;
46180;SDS011;58963;50.438;30.594;2022-08-01T03:49:32;3.30;;;2.50;;
46180;SDS011;58963;50.438;30.594;2022-08-01T03:54:55;4.60;;;2.42;;
46180;SDS011;58963;50.438;30.594;2022-08-01T04:00:16;3.97;;;2.23;;
46180;SDS011;58963;50.438;30.594;2022-08-01T04:05:37;4.53;;;2.50;;
46180;SDS011;58963;50.438;30.594;2022-08-01T04:10:59;7.25;;;2.20;;
46180;SDS011;58963;50.438;30.594;2022-08-01T04:16:18;6.63;;;2.67;;
46180;SDS011;58963;50.438;30.594;2022-08-01T04:21:38;4.30;;;3.00;;
46180;SDS011;58963;50.438;30.594;2022-08-01T04:26:58;4.88;;;2.35;;
46180;SDS011;58963;50.438;30.594;2022-08-01T04:32:20;3.63;;;2.70;;
46180;SDS011;58963;50.438;30.594;2022-08-01T04:37:40;4.38;;;2.25;;
46180;SDS011;58963;50.438;30.594;2022-08-01T04:43:01;7.30;;;2.60;;
46180;SDS011;58963;50.438;30.594;2022-08-01T04:48:21;5.43;;;2.42;;
46180;SDS011;58963;50.438;30.594;2022-08-01T04:53:43;6.00;;;2.73;;
46180;SDS011;58963;50.438;30.594;2022-08-01T04:59:04;4.75;;;2.50;;
46180;SDS011;58963;50.438;30.594;2022-08-01T05:04:42;25.90;;;12.80;;
46180;SDS011;58963;50.438;30.594;2022-08-01T05:10:03;7.15;;;5.13;;
46180;SDS011;58963;50.438;30.594;2022-08-01T05:15:23;9.13;;;3.70;;
46180;SDS011;58963;50.438;30.594;2022-08-01T05:20:42;6.03;;;3.33;;
46180;SDS011;58963;50.438;30.594;2022-08-01T05:26:01;10.65;;;4.55;;
46180;SDS011;58963;50.438;30.594;2022-08-01T05:31:23;5.83;;;3.20;;
46180;SDS011;58963;50.438;30.594;2022-08-01T05:36:42;3.97;;;2.90;;
46180;SDS011;58963;50.438;30.594;2022-08-01T05:42:01;5.45;;;4.25;;
46180;SDS011;58963;50.438;30.594;2022-08-01T05:47:21;6.45;;;2.72;;
46180;SDS011;58963;50.438;30.594;2022-08-01T05:52:41;4.03;;;3.55;;
46180;SDS011;58963;50.438;30.594;2022-08-01T05:58:00;5.97;;;2.90;;
46180;SDS011;58963;50.438;30.594;2022-08-01T06:03:19;3.35;;;2.38;;
46180;SDS011;58963;50.438;30.594;2022-08-01T06:08:39;6.85;;;2.95;;
46180;SDS011;58963;50.438;30.594;2022-08-01T06:13:59;4.32;;;2.53;;
46180;SDS011;58963;50.438;30.594;2022-08-01T06:19:18;8.35;;;2.67;;
46180;SDS011;58963;50.438;30.594;2022-08-01T06:24:37;5.30;;;2.53;;
46180;SDS011;58963;50.438;30.594;2022-08-01T06:29:56;4.82;;;2.90;;
46180;SDS011;58963;50.438;30.594;2022-08-01T06:35:15;4.43;;;2.53;;
46180;SDS011;58963;50.438;30.594;2022-08-01T06:40:35;3.50;;;2.10;;
46180;SDS011;58963;50.438;30.594;2022-08-01T06:45:55;4.45;;;2.53;;
46180;SDS011;58963;50.438;30.594;2022-08-01T06:51:14;6.78;;;2.28;;
46180;SDS011;58963;50.438;30.594;2022-08-01T06:56:36;5.20;;;2.67;;
46180;SDS011;58963;50.438;30.594;2022-08-01T07:01:56;7.28;;;2.58;;
46180;SDS011;58963;50.438;30.594;2022-08-01T07:07:15;4.90;;;2.60;;
46180;SDS011;58963;50.438;30.594;2022-08-01T07:12:35;4.72;;;2.00;;
46180;SDS011;58963;50.438;30.594;2022-08-01T07:17:56;4.30;;;1.75;;
46180;SDS011;58963;50.438;30.594;2022-08-01T07:23:17;3.47;;;2.40;;
46180;SDS011;58963;50.438;30.594;2022-08-01T07:28:36;4.68;;;2.25;;
46180;SDS011;58963;50.438;30.594;2022-08-01T07:33:56;6.07;;;2.13;;
46180;SDS011;58963;50.438;30.594;2022-08-01T07:39:15;2.83;;;1.90;;
46180;SDS011;58963;50.438;30.594;2022-08-01T07:44:35;3.33;;;1.88;;
46180;SDS011;58963;50.438;30.594;2022-08-01T07:50:01;6.07;;;1.77;;
46180;SDS011;58963;50.438;30.594;2022-08-01T07:55:22;2.97;;;2.03;;
46180;SDS011;58963;50.438;30.594;2022-08-01T08:00:41;2.50;;;2.30;;
46180;SDS011;58963;50.438;30.594;2022-08-01T08:06:01;3.67;;;2.10;;
46180;SDS011;58963;50.438;30.594;2022-08-01T08:11:21;7.13;;;2.88;;
46180;SDS011;58963;50.438;30.594;2022-08-01T08:16:41;3.15;;;2.42;;
46180;SDS011;58963;50.438;30.594;2022-08-01T08:22:01;4.30;;;2.60;;
46180;SDS011;58963;50.438;30.594;2022-08-01T08:27:21;4.93;;;2.50;;
46180;SDS011;58963;50.438;30.594;2022-08-01T08:32:40;5.00;;;2.42;;
46180;SDS011;58963;50.438;30.594;2022-08-01T08:38:00;4.25;;;2.40;;
46180;SDS011;58963;50.438;30.594;2022-08-01T08:43:19;5.45;;;2.30;;
46180;SDS011;58963;50.438;30.594;2022-08-01T08:48:40;9.70;;;7.63;;
46180;SDS011;58963;50.438;30.594;2022-08-01T08:54:00;4.53;;;2.50;;
46180;SDS011;58963;50.438;30.594;2022-08-01T08:59:22;5.10;;;2.92;;
46180;SDS011;58963;50.438;30.594;2022-08-01T09:04:46;2.95;;;2.38;;
46180;SDS011;58963;50.438;30.594;2022-08-01T09:10:07;7.03;;;3.03;;
46180;SDS011;58963;50.438;30.594;2022-08-01T09:31:51;4.50;;;2.70;;
46180;SDS011;58963;50.438;30.594;2022-08-01T09:37:11;4.13;;;2.72;;
46180;SDS011;58963;50.438;30.594;2022-08-01T09:42:31;5.72;;;3.10;;
46180;SDS011;58963;50.438;30.594;2022-08-01T09:47:51;7.25;;;3.70;;
46180;SDS011;58963;50.438;30.594;2022-08-01T09:53:10;5.93;;;3.30;;
46180;SDS011;58963;50.438;30.594;2022-08-01T09:58:31;3.85;;;2.95;;
46180;SDS011;58963;50.438;30.594;2022-08-01T10:04:11;3.97;;;3.13;;
46180;SDS011;58963;50.438;30.594;2022-08-01T10:09:40;3.85;;;3.35;;
46180;SDS011;58963;50.438;30.594;2022-08-01T10:14:59;3.47;;;2.47;;
46180;SDS011;58963;50.438;30.594;2022-08-01T10:20:19;3.42;;;3.13;;
46180;SDS011;58963;50.438;30.594;2022-08-01T10:30:59;3.60;;;3.05;;
46180;SDS011;58963;50.438;30.594;2022-08-01T10:36:20;4.95;;;3.50;;
46180;SDS011;58963;50.438;30.594;2022-08-01T10:41:41;6.10;;;3.45;;
46180;SDS011;58963;50.438;30.594;2022-08-01T10:47:05;3.97;;;3.53;;
46180;SDS011;58963;50.438;30.594;2022-08-01T10:52:30;4.47;;;2.80;;
46180;SDS011;58963;50.438;30.594;2022-08-01T10:57:49;4.00;;;3.03;;
46180;SDS011;58963;50.438;30.594;2022-08-01T11:03:09;5.65;;;3.47;;
46180;SDS011;58963;50.438;30.594;2022-08-01T11:08:28;5.82;;;3.40;;
46180;SDS011;58963;50.438;30.594;2022-08-01T11:19:22;4.93;;;3.60;;
46180;SDS011;58963;50.438;30.594;2022-08-01T11:35:30;4.32;;;3.92;;
46180;SDS011;58963;50.438;30.594;2022-08-01T11:52:18;6.57;;;4.88;;
46180;SDS011;58963;50.438;30.594;2022-08-01T11:57:43;5.43;;;4.35;;
46180;SDS011;58963;50.438;30.594;2022-08-01T12:03:03;5.35;;;3.83;;
46180;SDS011;58963;50.438;30.594;2022-08-01T12:08:24;5.22;;;4.00;;
46180;SDS011;58963;50.438;30.594;2022-08-01T12:13:45;4.18;;;3.78;;
46180;SDS011;58963;50.438;30.594;2022-08-01T12:19:05;6.10;;;3.97;;
46180;SDS011;58963;50.438;30.594;2022-08-01T12:24:25;5.97;;;4.18;;
46180;SDS011;58963;50.438;30.594;2022-08-01T12:29:44;5.70;;;4.35;;
46180;SDS011;58963;50.438;30.594;2022-08-01T12:35:11;4.28;;;3.90;;
46180;SDS011;58963;50.438;30.594;2022-08-01T12:40:34;9.10;;;4.95;;
46180;SDS011;58963;50.438;30.594;2022-08-01T12:45:55;4.95;;;4.07;;
46180;SDS011;58963;50.438;30.594;2022-08-01T12:51:17;6.05;;;3.63;;
46180;SDS011;58963;50.438;30.594;2022-08-01T12:56:37;5.07;;;3.83;;
46180;SDS011;58963;50.438;30.594;2022-08-01T13:01:56;5.28;;;4.00;;
46180;SDS011;58963;50.438;30.594;2022-08-01T13:07:15;4.00;;;3.40;;
46180;SDS011;58963;50.438;30.594;2022-08-01T13:12:34;5.18;;;3.80;;
46180;SDS011;58963;50.438;30.594;2022-08-01T13:17:54;4.30;;;3.88;;
46180;SDS011;58963;50.438;30.594;2022-08-01T13:23:17;5.47;;;3.45;;
46180;SDS011;58963;50.438;30.594;2022-08-01T13:28:38;4.15;;;3.65;;
46180;SDS011;58963;50.438;30.594;2022-08-01T13:33:57;5.93;;;4.30;;
46180;SDS011;58963;50.438;30.594;2022-08-01T13:39:16;3.78;;;3.42;;
46180;SDS011;58963;50.438;30.594;2022-08-01T13:44:54;4.85;;;3.67;;
46180;SDS011;58963;50.438;30.594;2022-08-01T13:50:14;4.50;;;3.80;;
46180;SDS011;58963;50.438;30.594;2022-08-01T13:55:33;4.97;;;3.92;;
46180;SDS011;58963;50.438;30.594;2022-08-01T14:00:52;6.88;;;3.85;;
46180;SDS011;58963;50.438;30.594;2022-08-01T14:06:12;5.90;;;4.05;;
46180;SDS011;58963;50.438;30.594;2022-08-01T14:11:34;4.68;;;4.22;;
46180;SDS011;58963;50.438;30.594;2022-08-01T14:16:53;4.03;;;3.20;;
46180;SDS011;58963;50.438;30.594;2022-08-01T14:22:12;6.00;;;3.65;;
46180;SDS011;58963;50.438;30.594;2022-08-01T14:27:31;4.30;;;3.90;;
46180;SDS011;58963;50.438;30.594;2022-08-01T14:32:54;6.50;;;3.90;;
46180;SDS011;58963;50.438;30.594;2022-08-01T14:38:14;8.60;;;4.60;;
46180;SDS011;58963;50.438;30.594;2022-08-01T14:43:33;6.05;;;4.10;;
46180;SDS011;58963;50.438;30.594;2022-08-01T14:48:52;5.28;;;4.25;;
46180;SDS011;58963;50.438;30.594;2022-08-01T14:54:11;7.63;;;4.05;;
46180;SDS011;58963;50.438;30.594;2022-08-01T14:59:31;6.55;;;4.45;;
46180;SDS011;58963;50.438;30.594;2022-08-01T15:04:50;5.38;;;4.50;;
46180;SDS011;58963;50.438;30.594;2022-08-01T15:10:10;5.25;;;4.72;;
46180;SDS011;58963;50.438;30.594;2022-08-01T15:15:32;7.57;;;4.85;;
46180;SDS011;58963;50.438;30.594;2022-08-01T15:20:52;6.45;;;4.57;;
46180;SDS011;58963;50.438;30.594;2022-08-01T15:26:11;6.80;;;5.00;;
46180;SDS011;58963;50.438;30.594;2022-08-01T15:31:32;6.47;;;5.10;;
46180;SDS011;58963;50.438;30.594;2022-08-01T15:36:51;7.10;;;4.78;;
46180;SDS011;58963;50.438;30.594;2022-08-01T15:42:12;6.38;;;5.35;;
46180;SDS011;58963;50.438;30.594;2022-08-01T15:52:52;5.68;;;5.18;;
46180;SDS011;58963;50.438;30.594;2022-08-01T15:58:11;5.85;;;5.22;;
46180;SDS011;58963;50.438;30.594;2022-08-01T16:03:30;7.22;;;4.53;;
46180;SDS011;58963;50.438;30.594;2022-08-01T16:08:53;5.47;;;4.97;;
46180;SDS011;58963;50.438;30.594;2022-08-01T16:14:13;6.68;;;5.65;;
46180;SDS011;58963;50.438;30.594;2022-08-01T16:19:32;8.88;;;5.60;;
46180;SDS011;58963;50.438;30.594;2022-08-01T16:24:51;4.93;;;4.43;;
46180;SDS011;58963;50.438;30.594;2022-08-01T16:30:11;6.00;;;5.20;;
46180;SDS011;58963;50.438;30.594;2022-08-01T16:35:30;7.80;;;5.10;;
46180;SDS011;58963;50.438;30.594;2022-08-01T16:40:50;6.75;;;4.85;;
46180;SDS011;58963;50.438;30.594;2022-08-01T16:46:10;5.50;;;4.30;;
46180;SDS011;58963;50.438;30.594;2022-08-01T16:51:29;5.45;;;4.97;;
46180;SDS011;58963;50.438;30.594;2022-08-01T16:56:49;8.07;;;5.35;;
46180;SDS011;58963;50.438;30.594;2022-08-01T17:02:20;7.17;;;5.23;;
46180;SDS011;58963;50.438;30.594;2022-08-01T17:07:42;6.90;;;5.13;;
46180;SDS011;58963;50.438;30.594;2022-08-01T17:13:02;7.28;;;5.50;;
46180;SDS011;58963;50.438;30.594;2022-08-01T17:18:22;7.97;;;4.63;;
46180;SDS011;58963;50.438;30.594;2022-08-01T17:23:41;9.90;;;5.22;;
46180;SDS011;58963;50.438;30.594;2022-08-01T17:29:01;6.03;;;4.80;;
46180;SDS011;58963;50.438;30.594;2022-08-01T17:34:20;7.80;;;6.32;;
46180;SDS011;58963;50.438;30.594;2022-08-01T17:39:39;9.07;;;5.32;;
46180;SDS011;58963;50.438;30.594;2022-08-01T17:44:59;7.95;;;5.00;;
46180;SDS011;58963;50.438;30.594;2022-08-01T17:50:18;7.72;;;5.93;;
46180;SDS011;58963;50.438;30.594;2022-08-01T17:55:37;7.85;;;6.38;;
46180;SDS011;58963;50.438;30.594;2022-08-01T18:01:30;8.32;;;5.70;;
46180;SDS011;58963;50.438;30.594;2022-08-01T18:06:49;9.13;;;6.68;;
46180;SDS011;58963;50.438;30.594;2022-08-01T18:12:11;7.10;;;5.63;;
46180;SDS011;58963;50.438;30.594;2022-08-01T18:17:34;8.32;;;5.90;;
46180;SDS011;58963;50.438;30.594;2022-08-01T18:22:53;5.95;;;5.40;;
46180;SDS011;58963;50.438;30.594;2022-08-01T18:28:13;6.40;;;5.65;;
46180;SDS011;58963;50.438;30.594;2022-08-01T18:33:38;7.43;;;5.75;;
46180;SDS011;58963;50.438;30.594;2022-08-01T18:39:06;9.23;;;5.97;;
46180;SDS011;58963;50.438;30.594;2022-08-01T18:44:27;7.60;;;6.63;;
46180;SDS011;58963;50.438;30.594;2022-08-01T18:49:47;8.02;;;6.13;;
46180;SDS011;58963;50.438;30.594;2022-08-01T18:55:06;8.50;;;6.05;;
46180;SDS011;58963;50.438;30.594;2022-08-01T19:00:26;8.00;;;5.80;;
46180;SDS011;58963;50.438;30.594;2022-08-01T19:05:46;10.13;;;6.57;;
46180;SDS011;58963;50.438;30.594;2022-08-01T19:11:08;8.30;;;5.20;;
46180;SDS011;58963;50.438;30.594;2022-08-01T19:16:28;10.02;;;5.03;;
46180;SDS011;58963;50.438;30.594;2022-08-01T19:21:47;5.55;;;4.97;;
46180;SDS011;58963;50.438;30.594;2022-08-01T19:27:10;5.72;;;3.95;;
46180;SDS011;58963;50.438;30.594;2022-08-01T19:32:34;7.07;;;4.18;;
46180;SDS011;58963;50.438;30.594;2022-08-01T19:37:55;5.20;;;4.38;;
46180;SDS011;58963;50.438;30.594;2022-08-01T19:43:15;5.28;;;4.30;;
46180;SDS011;58963;50.438;30.594;2022-08-01T19:48:37;4.55;;;4.15;;
46180;SDS011;58963;50.438;30.594;2022-08-01T19:53:57;5.28;;;4.03;;
46180;SDS011;58963;50.438;30.594;2022-08-01T19:59:23;4.55;;;4.15;;
46180;SDS011;58963;50.438;30.594;2022-08-01T20:04:43;6.13;;;4.78;;
46180;SDS011;58963;50.438;30.594;2022-08-01T20:10:03;5.90;;;4.53;;
46180;SDS011;58963;50.438;30.594;2022-08-01T20:15:22;7.70;;;5.45;;
46180;SDS011;58963;50.438;30.594;2022-08-01T20:20:44;6.07;;;5.32;;
46180;SDS011;58963;50.438;30.594;2022-08-01T20:26:04;5.65;;;4.97;;
46180;SDS011;58963;50.438;30.594;2022-08-01T20:31:26;6.82;;;4.60;;
46180;SDS011;58963;50.438;30.594;2022-08-01T20:36:46;5.35;;;4.43;;
46180;SDS011;58963;50.438;30.594;2022-08-01T20:42:08;4.85;;;4.35;;
46180;SDS011;58963;50.438;30.594;2022-08-01T20:47:28;4.75;;;4.30;;
46180;SDS011;58963;50.438;30.594;2022-08-01T20:52:51;4.85;;;4.43;;
46180;SDS011;58963;50.438;30.594;2022-08-01T20:58:22;5.30;;;4.07;;
46180;SDS011;58963;50.438;30.594;2022-08-01T21:09:26;4.90;;;4.40;;
46180;SDS011;58963;50.438;30.594;2022-08-01T21:14:57;4.53;;;4.13;;
46180;SDS011;58963;50.438;30.594;2022-08-01T21:20:18;4.57;;;3.95;;
46180;SDS011;58963;50.438;30.594;2022-08-01T21:25:40;4.43;;;4.03;;
46180;SDS011;58963;50.438;30.594;2022-08-01T21:31:02;7.40;;;4.90;;
46180;SDS011;58963;50.438;30.594;2022-08-01T21:36:22;5.47;;;4.47;;
46180;SDS011;58963;50.438;30.594;2022-08-01T21:41:43;6.53;;;4.50;;
46180;SDS011;58963;50.438;30.594;2022-08-01T21:47:03;5.00;;;4.50;;
46180;SDS011;58963;50.438;30.594;2022-08-01T21:52:23;4.55;;;4.03;;
46180;SDS011;58963;50.438;30.594;2022-08-01T22:08:49;5.03;;;4.63;;
46180;SDS011;58963;50.438;30.594;2022-08-01T22:14:09;4.75;;;4.25;;
46180;SDS011;58963;50.438;30.594;2022-08-01T22:19:32;5.43;;;4.47;;
46180;SDS011;58963;50.438;30.594;2022-08-01T22:24:53;5.13;;;4.70;;
46180;SDS011;58963;50.438;30.594;2022-08-01T22:30:13;4.93;;;4.47;;
46180;SDS011;58963;50.438;30.594;2022-08-01T22:35:34;6.03;;;5.43;;
46180;SDS011;58963;50.438;30.594;2022-08-01T22:40:59;6.25;;;5.65;;
46180;SDS011;58963;50.438;30.594;2022-08-01T22:46:54;5.72;;;4.30;;
46180;SDS011;58963;50.438;30.594;2022-08-01T22:52:32;5.32;;;4.88;;
46180;SDS011;58963;50.438;30.594;2022-08-01T22:58:00;6.85;;;6.00;;
46180;SDS011;58963;50.438;30.594;2022-08-01T23:03:39;6.68;;;4.55;;
46180;SDS011;58963;50.438;30.594;2022-08-01T23:08:59;6.25;;;5.47;;
46180;SDS011;58963;50.438;30.594;2022-08-01T23:14:20;7.47;;;5.25;;
46180;SDS011;58963;50.438;30.594;2022-08-01T23:19:41;6.30;;;5.70;;
46180;SDS011;58963;50.438;30.594;2022-08-01T23:25:04;6.25;;;5.65;;
46180;SDS011;58963;50.438;30.594;2022-08-01T23:30:28;8.73;;;5.70;;
46180;SDS011;58963;50.438;30.594;2022-08-01T23:35:50;5.85;;;5.25;;
46180;SDS011;58963;50.438;30.594;2022-08-01T23:41:10;5.70;;;5.20;;
46180;SDS011;58963;50.438;30.594;2022-08-01T23:46:32;6.43;;;5.82;;
46180;SDS011;58963;50.438;30.594;2022-08-01T23:51:51;7.07;;;6.07;;
46180;SDS011;58963;50.438;30.594;2022-08-01T23:57:11;6.70;;;5.90;;
